Reklama

Seznam meteostanic a jejich METAR

Vyhledat místa podle abecedy:
A B C D E F G H I J K L M N O P Q R S T U V W X Y Z

Filtrovat:

ID stanice:
a/nebo
Název místa (fulltext):
 
Místo (ID)Naposledy načteno 
Kadaň - Tušimice (Tusimice) 15.12.2019 20:00 UTC Zobrazit data
Místo: Kadaň - Tušimice
Teplota: 7 °C (pocitová: 3.1 °C)
Vítr: 2 m/s z(e) 0°
Počasí: zataženo
Dohlednost: 25 km
Zákl. oblačnosti: 8/8 660 m
Vlhkost: 87%
Karlovy Vary (K.Vary) 15.12.2019 20:00 UTC Zobrazit data
Místo: Karlovy Vary
Teplota: 5 °C (pocitová: -0.7 °C)
Vítr: 3 m/s z(e) 230°
Počasí: skoro zataženo
Dohlednost: 30 km
Zákl. oblačnosti: 3/8 450 m;5/8 4200 m
Vlhkost: 87%
Kocelovice (Kocelovice) 15.12.2019 20:00 UTC Zobrazit data
Místo: Kocelovice
Teplota: 6 °C (pocitová: -0.8 °C)
Vítr: 5 m/s z(e) 230°
Počasí: zataženo
Dohlednost: 25 km
Zákl. oblačnosti: 1/8 690 m;8/8 1350 m
Vlhkost: 87%
Kopisty (Kopisty) 15.12.2019 18:00 UTC Zobrazit data
Místo: Kopisty
Teplota: 7 °C (pocitová: 1.2 °C)
Vítr: 4 m/s z(e) 220°
Počasí: skoro zataženo
Dohlednost: 35 km
Zákl. oblačnosti: 3/8 1500 m;4/8 2700 m
Vlhkost: 87%
Kostelní Myslová (K.Myslova) 15.12.2019 20:00 UTC Zobrazit data
Místo: Kostelní Myslová
Teplota: 7 °C (pocitová: 3.1 °C)
Vítr: 2 m/s z(e) 0°
Počasí: skoro zataženo
Dohlednost: 24 km
Zákl. oblačnosti: 6/8 1110 m;7/8 2700 m
Vlhkost: 81%
Křešín - Kramolín (Kramolin) 15.12.2019 20:00 UTC Zobrazit data
Místo: Křešín - Kramolín
Teplota: 7 °C (pocitová: 0.6 °C)
Vítr: 5 m/s z(e) 250°
Počasí: zataženo
Dohlednost: 35 km
Zákl. oblačnosti: 8/8 1080 m
Vlhkost: 76%
Kuchařovice - Znojmo (Kucharovic) 15.12.2019 20:00 UTC Zobrazit data
Místo: Kuchařovice - Znojmo
Teplota: 3 °C (pocitová: -2.1 °C)
Vítr: 2 m/s z(e) 10°
Počasí: zataženo
Dohlednost: 21 km
Zákl. oblačnosti: 8/8 2700 m
Vlhkost: 93%
Kabul (OAKB) 15.12.2019 19:50 UTC Zobrazit METAR
OAKB 151950Z 00000KT 2500 FU NSC M02/M07 Q1025 NOSIG RMK A3028 YLO YLO
Kajaani (EFKI) 15.12.2019 19:50 UTC Zobrazit METAR
EFKI 151950Z 12010KT 4000 -SN BKN006 OVC022 M00/M01 Q0997
Kardla (EEKA) 15.12.2019 15:50 UTC Zobrazit METAR
EEKA 151550Z 16005KT 7000 OVC004 04/03 Q0993
Karlsruhe/ Baden-Baden (EDSB) 15.12.2019 19:50 UTC Zobrazit METAR
EDSB 151950Z 19006KT 7000 RA FEW041 BKN050 08/07 Q1011
Karup (EKKA) 15.12.2019 19:50 UTC Zobrazit METAR
EKKA 151950Z AUTO 22009KT 9999 FEW030/// SCT120/// BKN160/// 05/03 Q0994
Kathmandu (VNKT) 15.12.2019 20:20 UTC Zobrazit METAR
VNKT 152020Z VRB02KT 6000 FEW015 SCT030 BKN100 07/07 Q1020 NOSIG
Katowice (EPKT) 15.12.2019 20:00 UTC Zobrazit METAR
EPKT 152000Z 22010KT 9999 -RA FEW039 OVC044 07/04 Q1010
Kaunas (EYKA) 15.12.2019 19:50 UTC Zobrazit METAR
EYKA 151950Z 18009KT 150V210 9000 -DZ BKN011 OVC017 03/01 Q1001 R08/290095
Kavala (LGKV) 15.12.2019 19:50 UTC Zobrazit METAR
LGKV 151950Z 00000KT 9999 FEW020 11/10 Q1023
Kazan (UWKD) Zatím nenačteno  
Kefallinia (LGKF) 15.12.2019 17:50 UTC Zobrazit METAR
LGKF 151750Z 07004KT CAVOK 13/12 Q1021
Kemi (EFKE) 15.12.2019 19:50 UTC Zobrazit METAR
EFKE 151950Z AUTO 12006KT 080V150 9999 -SN OVC006 00/M00 Q0996
Kerkira (LGKR) 15.12.2019 19:50 UTC Zobrazit METAR
LGKR 151950Z 00000KT CAVOK 09/08 Q1023 NOSIG
Kerry (EIKY) 15.12.2019 19:00 UTC Zobrazit METAR
EIKY 151900Z 23017KT 9999 -RA FEW012 BKN026 BKN039 05/03 Q0985
Khartoum (HSSS) 15.12.2019 20:00 UTC Zobrazit METAR
HSSS 152000Z 35013KT CAVOK 24/M07 Q1015 NOSIG
Kigali (HRYR) 15.12.2019 13:00 UTC Zobrazit METAR
HRYR 151300Z VRB04KT 9999 SCT025 SCT100 26/16 Q1017 NOSIG
Kingston (MKJP) 15.12.2019 18:00 UTC Zobrazit METAR
MKJP 151800Z 21004KT 9999 FEW022 32/25 Q1014
Kingstown (TVSV) 13.12.2019 20:43 UTC Zobrazit METAR
TVSV 132043Z 12005G18KT 4000 SHRA BKN014 27/23 Q1010
Kinshasa (FZAA) 15.12.2019 12:00 UTC Zobrazit METAR
FZAA 151200Z 07008KT 8000 BKN020 39/23 Q1011 NOSIG
Kittila (EFKT) 15.12.2019 19:50 UTC Zobrazit METAR
EFKT 151950Z 11005KT 9999 -SN BKN005 M01/M02 Q0998
Klagenfurt (LOWK) 15.12.2019 17:50 UTC Zobrazit METAR
LOWK 151750Z 32003KT 6000 SCT003 BKN004 M01/M02 Q1017 R10L/19//95 BECMG 3000 BR
Kortrijk-Wevelgem (EBKT) Zatím nenačteno  
Kosice (LZKZ) 15.12.2019 20:00 UTC Zobrazit METAR
LZKZ 152000Z 23005KT 3500 BR OVC003 04/03 Q1016
Krakow (EPKK) 15.12.2019 20:00 UTC Zobrazit METAR
EPKK 152000Z 27007KT 250V320 9999 SCT050 08/03 Q1010
Kuala Lumpur (WMKK) 15.12.2019 20:00 UTC Zobrazit METAR
WMKK 152000Z VRB02KT 9000 FEW000 24/23 Q1009 NOSIG
Kuopio (EFKU) 15.12.2019 19:50 UTC Zobrazit METAR
EFKU 151950Z AUTO 13006KT 9999 -SNRA OVC007 00/M00 Q0996
Kuressaare (EEKE) 15.12.2019 16:50 UTC Zobrazit METAR
EEKE 151650Z 22010KT 190V250 9999 FEW017 BKN028 OVC035 05/04 Q0994 R17/290095
Kuwait (OKBK) 15.12.2019 20:00 UTC Zobrazit METAR
OKBK 152000Z 04007KT 5000 BR FEW040 BKN080 18/16 Q1016 NOSIG
Kyiv (UKBB) Zatím nenačteno  
Reklama

Počasí na Váš email

Emaily jsou bez reklamy a bez spamu



Odhlásit newsletter

Reklama


Lunární kalendář

  • 19.12.
  • 26.12.
  • 03.01.
  • 10.01.



Reklama


Reklama
Povinné ručení
Reklama



Reklama